sensor_id;sensor_type;location;lat;lon;timestamp;P1;durP1;ratioP1;P2;durP2;ratioP2
71570;SDS011;59407;42.682;23.322;2023-07-29T00:02:21;3.40;;;2.10;;
71570;SDS011;59407;42.682;23.322;2023-07-29T00:04:47;3.80;;;2.22;;
71570;SDS011;59407;42.682;23.322;2023-07-29T00:07:12;4.43;;;2.17;;
71570;SDS011;59407;42.682;23.322;2023-07-29T00:09:38;5.20;;;2.10;;
71570;SDS011;59407;42.682;23.322;2023-07-29T00:12:03;4.10;;;2.03;;
71570;SDS011;59407;42.682;23.322;2023-07-29T00:14:31;3.63;;;2.00;;
71570;SDS011;59407;42.682;23.322;2023-07-29T00:16:56;6.32;;;2.20;;
71570;SDS011;59407;42.682;23.322;2023-07-29T00:19:21;4.47;;;2.27;;
71570;SDS011;59407;42.682;23.322;2023-07-29T00:21:48;4.22;;;1.98;;
71570;SDS011;59407;42.682;23.322;2023-07-29T00:24:14;3.43;;;1.83;;
71570;SDS011;59407;42.682;23.322;2023-07-29T00:26:39;4.03;;;2.03;;
71570;SDS011;59407;42.682;23.322;2023-07-29T00:29:05;6.57;;;1.97;;
71570;SDS011;59407;42.682;23.322;2023-07-29T00:31:30;3.70;;;1.90;;
71570;SDS011;59407;42.682;23.322;2023-07-29T00:33:56;4.10;;;1.97;;
71570;SDS011;59407;42.682;23.322;2023-07-29T00:36:23;3.20;;;1.73;;
71570;SDS011;59407;42.682;23.322;2023-07-29T00:38:48;4.23;;;2.10;;
71570;SDS011;59407;42.682;23.322;2023-07-29T00:41:14;4.33;;;2.40;;
71570;SDS011;59407;42.682;23.322;2023-07-29T00:43:39;4.05;;;2.00;;
71570;SDS011;59407;42.682;23.322;2023-07-29T00:46:05;4.00;;;1.90;;
71570;SDS011;59407;42.682;23.322;2023-07-29T00:48:30;3.27;;;2.10;;
71570;SDS011;59407;42.682;23.322;2023-07-29T00:50:56;4.47;;;2.10;;
71570;SDS011;59407;42.682;23.322;2023-07-29T00:53:21;3.47;;;1.90;;
71570;SDS011;59407;42.682;23.322;2023-07-29T00:55:47;4.87;;;2.17;;
71570;SDS011;59407;42.682;23.322;2023-07-29T00:58:12;4.10;;;2.30;;
71570;SDS011;59407;42.682;23.322;2023-07-29T01:00:38;3.30;;;2.00;;
71570;SDS011;59407;42.682;23.322;2023-07-29T01:03:03;3.63;;;1.97;;
71570;SDS011;59407;42.682;23.322;2023-07-29T01:05:32;4.45;;;2.33;;
71570;SDS011;59407;42.682;23.322;2023-07-29T01:13:36;4.63;;;2.10;;
71570;SDS011;59407;42.682;23.322;2023-07-29T01:16:25;3.33;;;2.10;;
71570;SDS011;59407;42.682;23.322;2023-07-29T01:19:20;3.67;;;2.05;;
71570;SDS011;59407;42.682;23.322;2023-07-29T01:22:18;4.68;;;2.05;;
71570;SDS011;59407;42.682;23.322;2023-07-29T01:24:44;4.43;;;2.38;;
71570;SDS011;59407;42.682;23.322;2023-07-29T01:27:09;3.83;;;2.30;;
71570;SDS011;59407;42.682;23.322;2023-07-29T01:29:35;3.67;;;2.00;;
71570;SDS011;59407;42.682;23.322;2023-07-29T01:32:03;4.65;;;2.50;;
71570;SDS011;59407;42.682;23.322;2023-07-29T01:34:35;4.63;;;2.47;;
71570;SDS011;59407;42.682;23.322;2023-07-29T01:37:06;3.65;;;1.98;;
71570;SDS011;59407;42.682;23.322;2023-07-29T01:39:34;5.57;;;2.30;;
71570;SDS011;59407;42.682;23.322;2023-07-29T01:42:00;3.67;;;2.25;;
71570;SDS011;59407;42.682;23.322;2023-07-29T01:44:26;5.10;;;2.50;;
71570;SDS011;59407;42.682;23.322;2023-07-29T01:46:52;3.90;;;2.20;;
71570;SDS011;59407;42.682;23.322;2023-07-29T01:49:19;4.55;;;2.10;;
71570;SDS011;59407;42.682;23.322;2023-07-29T01:51:45;4.60;;;2.45;;
71570;SDS011;59407;42.682;23.322;2023-07-29T01:54:10;5.23;;;2.13;;
71570;SDS011;59407;42.682;23.322;2023-07-29T01:56:36;4.20;;;2.37;;
71570;SDS011;59407;42.682;23.322;2023-07-29T01:59:02;4.82;;;2.15;;
71570;SDS011;59407;42.682;23.322;2023-07-29T02:01:27;5.43;;;2.10;;
71570;SDS011;59407;42.682;23.322;2023-07-29T02:03:53;5.03;;;2.63;;
71570;SDS011;59407;42.682;23.322;2023-07-29T02:06:20;5.85;;;2.50;;
71570;SDS011;59407;42.682;23.322;2023-07-29T02:08:47;4.43;;;2.70;;
71570;SDS011;59407;42.682;23.322;2023-07-29T02:11:12;4.97;;;2.10;;
71570;SDS011;59407;42.682;23.322;2023-07-29T02:13:39;4.18;;;2.60;;
71570;SDS011;59407;42.682;23.322;2023-07-29T02:16:04;3.73;;;2.10;;
71570;SDS011;59407;42.682;23.322;2023-07-29T02:18:29;4.67;;;2.00;;
71570;SDS011;59407;42.682;23.322;2023-07-29T02:20:55;4.17;;;2.30;;
71570;SDS011;59407;42.682;23.322;2023-07-29T02:23:21;7.07;;;2.70;;
71570;SDS011;59407;42.682;23.322;2023-07-29T02:25:46;4.60;;;2.40;;
71570;SDS011;59407;42.682;23.322;2023-07-29T02:28:12;4.63;;;2.27;;
71570;SDS011;59407;42.682;23.322;2023-07-29T02:30:40;3.73;;;2.23;;
71570;SDS011;59407;42.682;23.322;2023-07-29T02:33:06;4.15;;;2.35;;
71570;SDS011;59407;42.682;23.322;2023-07-29T02:35:32;5.05;;;2.45;;
71570;SDS011;59407;42.682;23.322;2023-07-29T02:37:58;4.20;;;2.47;;
71570;SDS011;59407;42.682;23.322;2023-07-29T02:40:23;5.45;;;2.83;;
71570;SDS011;59407;42.682;23.322;2023-07-29T02:42:51;4.10;;;2.20;;
71570;SDS011;59407;42.682;23.322;2023-07-29T02:45:17;4.13;;;2.63;;
71570;SDS011;59407;42.682;23.322;2023-07-29T02:47:42;3.90;;;2.20;;
71570;SDS011;59407;42.682;23.322;2023-07-29T02:50:08;4.25;;;2.38;;
71570;SDS011;59407;42.682;23.322;2023-07-29T02:52:34;6.20;;;2.40;;
71570;SDS011;59407;42.682;23.322;2023-07-29T02:54:59;4.70;;;2.63;;
71570;SDS011;59407;42.682;23.322;2023-07-29T02:57:25;4.82;;;2.13;;
71570;SDS011;59407;42.682;23.322;2023-07-29T02:59:50;3.73;;;2.20;;
71570;SDS011;59407;42.682;23.322;2023-07-29T03:02:16;5.30;;;2.50;;
71570;SDS011;59407;42.682;23.322;2023-07-29T03:04:42;5.53;;;2.57;;
71570;SDS011;59407;42.682;23.322;2023-07-29T03:07:13;4.90;;;2.57;;
71570;SDS011;59407;42.682;23.322;2023-07-29T03:09:39;4.15;;;2.22;;
71570;SDS011;59407;42.682;23.322;2023-07-29T03:12:07;6.32;;;1.90;;
71570;SDS011;59407;42.682;23.322;2023-07-29T03:14:32;4.20;;;2.50;;
71570;SDS011;59407;42.682;23.322;2023-07-29T03:17:01;3.97;;;2.47;;
71570;SDS011;59407;42.682;23.322;2023-07-29T03:19:28;4.10;;;2.25;;
71570;SDS011;59407;42.682;23.322;2023-07-29T03:21:53;5.50;;;2.30;;
71570;SDS011;59407;42.682;23.322;2023-07-29T03:24:18;4.73;;;2.20;;
71570;SDS011;59407;42.682;23.322;2023-07-29T03:26:44;4.13;;;2.57;;
71570;SDS011;59407;42.682;23.322;2023-07-29T03:29:09;5.17;;;2.50;;
71570;SDS011;59407;42.682;23.322;2023-07-29T03:31:34;3.97;;;2.43;;
71570;SDS011;59407;42.682;23.322;2023-07-29T03:34:00;3.83;;;2.40;;
71570;SDS011;59407;42.682;23.322;2023-07-29T03:36:25;3.88;;;2.40;;
71570;SDS011;59407;42.682;23.322;2023-07-29T03:38:51;5.23;;;2.57;;
71570;SDS011;59407;42.682;23.322;2023-07-29T03:41:16;6.27;;;2.70;;
71570;SDS011;59407;42.682;23.322;2023-07-29T03:43:42;3.47;;;2.10;;
71570;SDS011;59407;42.682;23.322;2023-07-29T03:46:07;4.30;;;2.30;;
71570;SDS011;59407;42.682;23.322;2023-07-29T03:48:32;4.17;;;2.53;;
71570;SDS011;59407;42.682;23.322;2023-07-29T03:50:58;6.57;;;2.83;;
71570;SDS011;59407;42.682;23.322;2023-07-29T03:53:23;4.60;;;2.50;;
71570;SDS011;59407;42.682;23.322;2023-07-29T03:55:49;4.13;;;2.47;;
71570;SDS011;59407;42.682;23.322;2023-07-29T03:58:15;4.07;;;2.20;;
71570;SDS011;59407;42.682;23.322;2023-07-29T04:00:40;4.80;;;2.65;;
71570;SDS011;59407;42.682;23.322;2023-07-29T04:03:06;5.93;;;2.87;;
71570;SDS011;59407;42.682;23.322;2023-07-29T04:05:33;4.45;;;2.40;;
71570;SDS011;59407;42.682;23.322;2023-07-29T04:07:59;5.97;;;2.73;;
71570;SDS011;59407;42.682;23.322;2023-07-29T04:10:25;7.38;;;2.45;;
71570;SDS011;59407;42.682;23.322;2023-07-29T04:12:51;3.77;;;2.10;;
71570;SDS011;59407;42.682;23.322;2023-07-29T04:15:16;4.57;;;2.67;;
71570;SDS011;59407;42.682;23.322;2023-07-29T04:17:42;4.67;;;2.67;;
71570;SDS011;59407;42.682;23.322;2023-07-29T04:20:07;4.10;;;2.17;;
71570;SDS011;59407;42.682;23.322;2023-07-29T04:22:35;5.72;;;2.80;;
71570;SDS011;59407;42.682;23.322;2023-07-29T04:25:00;4.67;;;2.50;;
71570;SDS011;59407;42.682;23.322;2023-07-29T04:27:29;6.05;;;2.88;;
71570;SDS011;59407;42.682;23.322;2023-07-29T04:29:55;4.67;;;2.20;;
71570;SDS011;59407;42.682;23.322;2023-07-29T04:32:22;5.68;;;2.80;;
71570;SDS011;59407;42.682;23.322;2023-07-29T04:34:47;3.53;;;2.23;;
71570;SDS011;59407;42.682;23.322;2023-07-29T04:37:13;3.57;;;2.40;;
71570;SDS011;59407;42.682;23.322;2023-07-29T04:39:38;4.95;;;2.40;;
71570;SDS011;59407;42.682;23.322;2023-07-29T04:42:03;5.10;;;2.77;;
71570;SDS011;59407;42.682;23.322;2023-07-29T04:44:29;4.20;;;2.37;;
71570;SDS011;59407;42.682;23.322;2023-07-29T04:46:54;5.15;;;2.60;;
71570;SDS011;59407;42.682;23.322;2023-07-29T04:49:20;4.27;;;2.33;;
71570;SDS011;59407;42.682;23.322;2023-07-29T04:51:45;5.90;;;2.77;;
71570;SDS011;59407;42.682;23.322;2023-07-29T04:54:11;5.05;;;2.50;;
71570;SDS011;59407;42.682;23.322;2023-07-29T04:56:38;3.97;;;2.08;;
71570;SDS011;59407;42.682;23.322;2023-07-29T04:59:04;4.97;;;2.57;;
71570;SDS011;59407;42.682;23.322;2023-07-29T05:01:30;7.90;;;2.65;;
71570;SDS011;59407;42.682;23.322;2023-07-29T05:03:55;5.13;;;2.60;;
71570;SDS011;59407;42.682;23.322;2023-07-29T05:06:21;3.53;;;2.10;;
71570;SDS011;59407;42.682;23.322;2023-07-29T05:08:46;5.33;;;2.60;;
71570;SDS011;59407;42.682;23.322;2023-07-29T05:11:12;5.03;;;2.60;;
71570;SDS011;59407;42.682;23.322;2023-07-29T05:13:37;6.55;;;2.72;;
71570;SDS011;59407;42.682;23.322;2023-07-29T05:16:03;6.63;;;2.80;;
71570;SDS011;59407;42.682;23.322;2023-07-29T05:18:29;5.40;;;2.38;;
71570;SDS011;59407;42.682;23.322;2023-07-29T05:20:54;5.33;;;2.60;;
71570;SDS011;59407;42.682;23.322;2023-07-29T05:23:20;4.97;;;2.40;;
71570;SDS011;59407;42.682;23.322;2023-07-29T05:25:45;4.90;;;2.40;;
71570;SDS011;59407;42.682;23.322;2023-07-29T05:28:10;4.77;;;2.77;;
71570;SDS011;59407;42.682;23.322;2023-07-29T05:30:36;5.03;;;2.97;;
71570;SDS011;59407;42.682;23.322;2023-07-29T05:33:03;6.20;;;2.93;;
71570;SDS011;59407;42.682;23.322;2023-07-29T05:35:29;5.38;;;3.00;;
71570;SDS011;59407;42.682;23.322;2023-07-29T05:37:54;7.18;;;2.90;;
71570;SDS011;59407;42.682;23.322;2023-07-29T05:40:20;4.27;;;2.20;;
71570;SDS011;59407;42.682;23.322;2023-07-29T05:42:45;5.37;;;2.83;;
71570;SDS011;59407;42.682;23.322;2023-07-29T05:45:11;5.33;;;2.70;;
71570;SDS011;59407;42.682;23.322;2023-07-29T05:47:36;4.57;;;2.63;;
71570;SDS011;59407;42.682;23.322;2023-07-29T05:50:02;6.47;;;2.70;;
71570;SDS011;59407;42.682;23.322;2023-07-29T05:52:29;5.18;;;2.50;;
71570;SDS011;59407;42.682;23.322;2023-07-29T05:54:55;4.57;;;2.33;;
71570;SDS011;59407;42.682;23.322;2023-07-29T05:57:21;5.27;;;2.60;;
71570;SDS011;59407;42.682;23.322;2023-07-29T05:59:46;4.30;;;2.47;;
71570;SDS011;59407;42.682;23.322;2023-07-29T06:02:13;4.60;;;2.55;;
71570;SDS011;59407;42.682;23.322;2023-07-29T06:04:38;4.43;;;2.33;;
71570;SDS011;59407;42.682;23.322;2023-07-29T06:07:06;7.25;;;2.70;;
71570;SDS011;59407;42.682;23.322;2023-07-29T06:09:32;5.50;;;2.47;;
71570;SDS011;59407;42.682;23.322;2023-07-29T06:11:59;4.80;;;2.35;;
71570;SDS011;59407;42.682;23.322;2023-07-29T06:14:24;4.93;;;2.40;;
71570;SDS011;59407;42.682;23.322;2023-07-29T06:16:50;3.70;;;2.13;;
71570;SDS011;59407;42.682;23.322;2023-07-29T06:19:17;5.35;;;2.65;;
71570;SDS011;59407;42.682;23.322;2023-07-29T06:21:44;4.63;;;2.40;;
71570;SDS011;59407;42.682;23.322;2023-07-29T06:24:09;5.13;;;2.47;;
71570;SDS011;59407;42.682;23.322;2023-07-29T06:26:35;3.63;;;2.30;;
71570;SDS011;59407;42.682;23.322;2023-07-29T06:29:00;4.03;;;2.60;;
71570;SDS011;59407;42.682;23.322;2023-07-29T06:31:25;4.70;;;2.37;;
71570;SDS011;59407;42.682;23.322;2023-07-29T06:33:51;6.43;;;2.53;;
71570;SDS011;59407;42.682;23.322;2023-07-29T06:36:17;4.53;;;2.30;;
71570;SDS011;59407;42.682;23.322;2023-07-29T06:38:44;3.60;;;2.20;;
71570;SDS011;59407;42.682;23.322;2023-07-29T06:41:09;4.32;;;2.33;;
71570;SDS011;59407;42.682;23.322;2023-07-29T06:43:34;4.37;;;2.30;;
71570;SDS011;59407;42.682;23.322;2023-07-29T06:46:00;4.00;;;2.43;;
71570;SDS011;59407;42.682;23.322;2023-07-29T06:48:25;3.87;;;2.40;;
71570;SDS011;59407;42.682;23.322;2023-07-29T06:50:51;4.82;;;2.20;;
71570;SDS011;59407;42.682;23.322;2023-07-29T06:53:17;4.23;;;2.40;;
71570;SDS011;59407;42.682;23.322;2023-07-29T06:55:43;3.57;;;2.40;;
71570;SDS011;59407;42.682;23.322;2023-07-29T06:58:09;4.77;;;2.60;;
71570;SDS011;59407;42.682;23.322;2023-07-29T07:00:35;4.63;;;2.50;;
71570;SDS011;59407;42.682;23.322;2023-07-29T07:03:01;4.85;;;2.58;;
71570;SDS011;59407;42.682;23.322;2023-07-29T07:05:26;4.83;;;2.93;;
71570;SDS011;59407;42.682;23.322;2023-07-29T07:07:52;7.63;;;2.87;;
71570;SDS011;59407;42.682;23.322;2023-07-29T07:10:17;6.85;;;2.67;;
71570;SDS011;59407;42.682;23.322;2023-07-29T07:12:43;4.87;;;2.57;;
71570;SDS011;59407;42.682;23.322;2023-07-29T07:15:08;4.73;;;2.40;;
71570;SDS011;59407;42.682;23.322;2023-07-29T07:17:34;6.10;;;2.50;;
71570;SDS011;59407;42.682;23.322;2023-07-29T07:20:02;4.93;;;2.63;;
71570;SDS011;59407;42.682;23.322;2023-07-29T07:22:28;5.10;;;2.60;;
71570;SDS011;59407;42.682;23.322;2023-07-29T07:24:53;7.07;;;2.73;;
71570;SDS011;59407;42.682;23.322;2023-07-29T07:27:20;6.00;;;2.88;;
71570;SDS011;59407;42.682;23.322;2023-07-29T07:29:45;5.37;;;2.17;;
71570;SDS011;59407;42.682;23.322;2023-07-29T07:32:11;7.78;;;2.72;;
71570;SDS011;59407;42.682;23.322;2023-07-29T07:34:36;5.70;;;3.27;;
71570;SDS011;59407;42.682;23.322;2023-07-29T07:37:02;4.27;;;2.53;;
71570;SDS011;59407;42.682;23.322;2023-07-29T07:39:29;5.05;;;2.70;;
71570;SDS011;59407;42.682;23.322;2023-07-29T07:41:55;5.83;;;3.07;;
71570;SDS011;59407;42.682;23.322;2023-07-29T07:44:20;4.85;;;2.60;;
71570;SDS011;59407;42.682;23.322;2023-07-29T07:46:46;5.63;;;3.00;;
71570;SDS011;59407;42.682;23.322;2023-07-29T07:49:11;5.20;;;2.67;;
71570;SDS011;59407;42.682;23.322;2023-07-29T07:51:38;6.43;;;3.35;;
71570;SDS011;59407;42.682;23.322;2023-07-29T07:54:04;3.95;;;2.40;;
71570;SDS011;59407;42.682;23.322;2023-07-29T07:56:29;4.03;;;2.60;;
71570;SDS011;59407;42.682;23.322;2023-07-29T07:58:55;5.03;;;2.37;;
71570;SDS011;59407;42.682;23.322;2023-07-29T08:01:21;5.68;;;2.60;;
71570;SDS011;59407;42.682;23.322;2023-07-29T08:03:46;5.57;;;2.90;;
71570;SDS011;59407;42.682;23.322;2023-07-29T08:06:12;5.45;;;2.38;;
71570;SDS011;59407;42.682;23.322;2023-07-29T08:08:37;5.83;;;2.47;;
71570;SDS011;59407;42.682;23.322;2023-07-29T08:11:02;6.20;;;2.80;;
71570;SDS011;59407;42.682;23.322;2023-07-29T08:13:29;5.25;;;3.05;;
71570;SDS011;59407;42.682;23.322;2023-07-29T08:15:54;5.07;;;2.60;;
71570;SDS011;59407;42.682;23.322;2023-07-29T08:18:21;5.32;;;2.70;;
71570;SDS011;59407;42.682;23.322;2023-07-29T08:23:20;5.30;;;2.43;;
71570;SDS011;59407;42.682;23.322;2023-07-29T08:26:00;7.28;;;2.78;;
71570;SDS011;59407;42.682;23.322;2023-07-29T08:28:36;5.07;;;2.20;;
71570;SDS011;59407;42.682;23.322;2023-07-29T08:31:03;5.03;;;2.63;;
71570;SDS011;59407;42.682;23.322;2023-07-29T08:33:29;4.53;;;2.47;;
71570;SDS011;59407;42.682;23.322;2023-07-29T08:35:55;4.43;;;2.17;;
71570;SDS011;59407;42.682;23.322;2023-07-29T08:38:21;4.17;;;2.03;;
71570;SDS011;59407;42.682;23.322;2023-07-29T08:40:52;8.35;;;2.25;;
71570;SDS011;59407;42.682;23.322;2023-07-29T08:43:19;4.90;;;2.77;;
71570;SDS011;59407;42.682;23.322;2023-07-29T08:45:46;4.50;;;2.15;;
71570;SDS011;59407;42.682;23.322;2023-07-29T08:48:13;4.53;;;2.30;;
71570;SDS011;59407;42.682;23.322;2023-07-29T08:50:42;4.93;;;2.17;;
71570;SDS011;59407;42.682;23.322;2023-07-29T08:53:09;4.35;;;1.92;;
71570;SDS011;59407;42.682;23.322;2023-07-29T08:55:35;3.90;;;2.00;;
71570;SDS011;59407;42.682;23.322;2023-07-29T08:58:00;3.85;;;1.70;;
71570;SDS011;59407;42.682;23.322;2023-07-29T09:00:27;3.70;;;1.60;;
71570;SDS011;59407;42.682;23.322;2023-07-29T09:02:53;3.22;;;1.70;;
71570;SDS011;59407;42.682;23.322;2023-07-29T09:05:20;4.03;;;1.73;;
71570;SDS011;59407;42.682;23.322;2023-07-29T09:07:46;3.78;;;1.63;;
71570;SDS011;59407;42.682;23.322;2023-07-29T09:10:14;3.50;;;1.60;;
71570;SDS011;59407;42.682;23.322;2023-07-29T09:12:40;3.78;;;1.63;;
71570;SDS011;59407;42.682;23.322;2023-07-29T09:15:06;3.65;;;1.80;;
71570;SDS011;59407;42.682;23.322;2023-07-29T09:17:35;3.33;;;1.77;;
71570;SDS011;59407;42.682;23.322;2023-07-29T09:20:00;4.78;;;1.30;;
71570;SDS011;59407;42.682;23.322;2023-07-29T09:22:26;2.30;;;0.80;;
71570;SDS011;59407;42.682;23.322;2023-07-29T09:24:52;2.70;;;1.08;;
71570;SDS011;59407;42.682;23.322;2023-07-29T09:27:27;2.23;;;0.67;;
71570;SDS011;59407;42.682;23.322;2023-07-29T09:29:55;2.00;;;0.60;;
71570;SDS011;59407;42.682;23.322;2023-07-29T09:32:21;2.42;;;0.75;;
71570;SDS011;59407;42.682;23.322;2023-07-29T09:34:47;2.35;;;0.82;;
71570;SDS011;59407;42.682;23.322;2023-07-29T09:37:17;2.10;;;0.77;;
71570;SDS011;59407;42.682;23.322;2023-07-29T09:39:48;3.42;;;0.80;;
71570;SDS011;59407;42.682;23.322;2023-07-29T09:42:18;2.47;;;0.98;;
71570;SDS011;59407;42.682;23.322;2023-07-29T09:44:45;2.20;;;1.00;;
71570;SDS011;59407;42.682;23.322;2023-07-29T09:49:52;2.55;;;0.80;;
71570;SDS011;59407;42.682;23.322;2023-07-29T09:52:22;2.45;;;0.90;;
71570;SDS011;59407;42.682;23.322;2023-07-29T09:54:47;3.20;;;0.90;;
71570;SDS011;59407;42.682;23.322;2023-07-29T09:57:13;2.27;;;0.80;;
71570;SDS011;59407;42.682;23.322;2023-07-29T09:59:39;2.53;;;0.80;;
71570;SDS011;59407;42.682;23.322;2023-07-29T10:02:07;2.80;;;0.97;;
71570;SDS011;59407;42.682;23.322;2023-07-29T10:04:39;2.17;;;0.70;;
71570;SDS011;59407;42.682;23.322;2023-07-29T10:07:07;3.03;;;0.90;;
71570;SDS011;59407;42.682;23.322;2023-07-29T10:09:34;2.50;;;0.90;;
71570;SDS011;59407;42.682;23.322;2023-07-29T10:12:00;2.70;;;0.83;;
71570;SDS011;59407;42.682;23.322;2023-07-29T10:14:27;2.15;;;0.80;;
71570;SDS011;59407;42.682;23.322;2023-07-29T10:16:53;2.40;;;0.70;;
71570;SDS011;59407;42.682;23.322;2023-07-29T10:19:18;2.45;;;0.80;;
71570;SDS011;59407;42.682;23.322;2023-07-29T10:21:44;2.40;;;0.82;;
71570;SDS011;59407;42.682;23.322;2023-07-29T10:24:15;2.38;;;0.68;;
71570;SDS011;59407;42.682;23.322;2023-07-29T10:26:41;2.27;;;0.73;;
71570;SDS011;59407;42.682;23.322;2023-07-29T10:29:12;2.67;;;1.00;;
71570;SDS011;59407;42.682;23.322;2023-07-29T10:31:38;2.10;;;0.80;;
71570;SDS011;59407;42.682;23.322;2023-07-29T10:34:05;1.73;;;0.60;;
71570;SDS011;59407;42.682;23.322;2023-07-29T10:36:31;1.87;;;0.50;;
71570;SDS011;59407;42.682;23.322;2023-07-29T10:38:58;2.10;;;0.70;;
71570;SDS011;59407;42.682;23.322;2023-07-29T10:41:30;1.67;;;0.50;;
71570;SDS011;59407;42.682;23.322;2023-07-29T10:47:26;3.40;;;0.70;;
71570;SDS011;59407;42.682;23.322;2023-07-29T10:49:53;2.15;;;0.65;;
71570;SDS011;59407;42.682;23.322;2023-07-29T10:55:01;1.98;;;0.70;;
71570;SDS011;59407;42.682;23.322;2023-07-29T11:00:03;1.70;;;0.47;;
71570;SDS011;59407;42.682;23.322;2023-07-29T11:02:35;1.92;;;0.60;;
71570;SDS011;59407;42.682;23.322;2023-07-29T11:05:05;1.95;;;0.50;;
71570;SDS011;59407;42.682;23.322;2023-07-29T11:07:31;1.75;;;0.50;;
71570;SDS011;59407;42.682;23.322;2023-07-29T11:10:08;1.90;;;0.60;;
71570;SDS011;59407;42.682;23.322;2023-07-29T11:20:13;2.03;;;0.45;;
71570;SDS011;59407;42.682;23.322;2023-07-29T11:22:40;1.65;;;0.38;;
71570;SDS011;59407;42.682;23.322;2023-07-29T11:25:06;2.03;;;0.47;;
71570;SDS011;59407;42.682;23.322;2023-07-29T11:27:33;1.67;;;0.50;;
71570;SDS011;59407;42.682;23.322;2023-07-29T11:30:02;1.60;;;0.40;;
71570;SDS011;59407;42.682;23.322;2023-07-29T11:32:30;1.90;;;0.40;;
71570;SDS011;59407;42.682;23.322;2023-07-29T11:34:55;1.48;;;0.40;;
71570;SDS011;59407;42.682;23.322;2023-07-29T11:37:21;1.77;;;0.47;;
71570;SDS011;59407;42.682;23.322;2023-07-29T11:39:47;2.00;;;0.47;;
71570;SDS011;59407;42.682;23.322;2023-07-29T11:42:13;1.90;;;0.40;;
71570;SDS011;59407;42.682;23.322;2023-07-29T11:44:40;1.70;;;0.50;;
71570;SDS011;59407;42.682;23.322;2023-07-29T11:47:06;1.83;;;0.45;;
71570;SDS011;59407;42.682;23.322;2023-07-29T11:49:33;1.70;;;0.40;;
71570;SDS011;59407;42.682;23.322;2023-07-29T11:51:59;1.50;;;0.40;;
71570;SDS011;59407;42.682;23.322;2023-07-29T11:54:25;2.00;;;0.40;;
71570;SDS011;59407;42.682;23.322;2023-07-29T11:56:51;1.67;;;0.40;;
71570;SDS011;59407;42.682;23.322;2023-07-29T11:59:16;2.70;;;0.50;;
71570;SDS011;59407;42.682;23.322;2023-07-29T12:01:41;2.40;;;0.73;;
71570;SDS011;59407;42.682;23.322;2023-07-29T12:04:08;2.10;;;0.60;;
71570;SDS011;59407;42.682;23.322;2023-07-29T12:06:34;2.33;;;0.80;;
71570;SDS011;59407;42.682;23.322;2023-07-29T12:09:00;2.10;;;0.60;;
71570;SDS011;59407;42.682;23.322;2023-07-29T12:11:25;2.08;;;0.80;;
71570;SDS011;59407;42.682;23.322;2023-07-29T12:13:53;2.97;;;0.70;;
71570;SDS011;59407;42.682;23.322;2023-07-29T12:16:19;2.70;;;0.52;;
71570;SDS011;59407;42.682;23.322;2023-07-29T12:18:44;1.63;;;0.53;;
71570;SDS011;59407;42.682;23.322;2023-07-29T12:21:09;2.00;;;0.63;;
71570;SDS011;59407;42.682;23.322;2023-07-29T12:23:35;2.58;;;0.75;;
71570;SDS011;59407;42.682;23.322;2023-07-29T12:26:01;2.40;;;0.60;;
71570;SDS011;59407;42.682;23.322;2023-07-29T12:28:26;4.07;;;0.65;;
71570;SDS011;59407;42.682;23.322;2023-07-29T12:30:55;2.20;;;0.60;;
71570;SDS011;59407;42.682;23.322;2023-07-29T12:33:34;2.05;;;0.60;;
71570;SDS011;59407;42.682;23.322;2023-07-29T12:36:01;2.15;;;0.43;;
71570;SDS011;59407;42.682;23.322;2023-07-29T12:38:27;2.00;;;0.50;;
71570;SDS011;59407;42.682;23.322;2023-07-29T12:40:56;2.40;;;0.80;;
71570;SDS011;59407;42.682;23.322;2023-07-29T12:43:21;1.90;;;0.47;;
71570;SDS011;59407;42.682;23.322;2023-07-29T12:45:50;2.13;;;0.43;;
71570;SDS011;59407;42.682;23.322;2023-07-29T12:48:16;3.00;;;0.57;;
71570;SDS011;59407;42.682;23.322;2023-07-29T12:50:42;2.03;;;0.70;;
71570;SDS011;59407;42.682;23.322;2023-07-29T12:53:08;3.00;;;0.63;;
71570;SDS011;59407;42.682;23.322;2023-07-29T12:55:36;3.40;;;0.80;;
71570;SDS011;59407;42.682;23.322;2023-07-29T12:58:03;2.63;;;0.50;;
71570;SDS011;59407;42.682;23.322;2023-07-29T13:00:29;2.20;;;0.75;;
71570;SDS011;59407;42.682;23.322;2023-07-29T13:02:55;1.70;;;0.40;;
71570;SDS011;59407;42.682;23.322;2023-07-29T13:05:20;2.07;;;0.70;;
71570;SDS011;59407;42.682;23.322;2023-07-29T13:07:47;1.85;;;0.60;;
71570;SDS011;59407;42.682;23.322;2023-07-29T13:10:13;2.50;;;0.60;;
71570;SDS011;59407;42.682;23.322;2023-07-29T13:12:39;1.90;;;0.43;;
71570;SDS011;59407;42.682;23.322;2023-07-29T13:15:05;1.90;;;0.40;;
71570;SDS011;59407;42.682;23.322;2023-07-29T13:17:31;2.55;;;0.73;;
71570;SDS011;59407;42.682;23.322;2023-07-29T13:19:57;2.40;;;0.50;;
71570;SDS011;59407;42.682;23.322;2023-07-29T13:22:24;2.10;;;0.50;;
71570;SDS011;59407;42.682;23.322;2023-07-29T13:24:49;1.80;;;0.45;;
71570;SDS011;59407;42.682;23.322;2023-07-29T13:27:15;2.40;;;0.77;;
71570;SDS011;59407;42.682;23.322;2023-07-29T13:29:41;2.10;;;0.50;;
71570;SDS011;59407;42.682;23.322;2023-07-29T13:32:08;8.95;;;0.85;;
71570;SDS011;59407;42.682;23.322;2023-07-29T13:34:34;1.33;;;0.30;;
71570;SDS011;59407;42.682;23.322;2023-07-29T13:36:59;1.47;;;0.37;;
71570;SDS011;59407;42.682;23.322;2023-07-29T13:39:25;2.13;;;0.60;;
71570;SDS011;59407;42.682;23.322;2023-07-29T13:41:50;1.93;;;0.60;;
71570;SDS011;59407;42.682;23.322;2023-07-29T13:44:16;3.17;;;0.50;;
71570;SDS011;59407;42.682;23.322;2023-07-29T13:46:41;1.80;;;0.40;;
71570;SDS011;59407;42.682;23.322;2023-07-29T13:49:07;1.90;;;0.52;;
71570;SDS011;59407;42.682;23.322;2023-07-29T13:51:32;1.80;;;0.37;;
71570;SDS011;59407;42.682;23.322;2023-07-29T13:53:58;2.77;;;0.60;;
71570;SDS011;59407;42.682;23.322;2023-07-29T13:56:23;2.83;;;0.40;;
71570;SDS011;59407;42.682;23.322;2023-07-29T13:58:49;2.23;;;0.50;;
71570;SDS011;59407;42.682;23.322;2023-07-29T14:01:14;1.93;;;0.40;;
71570;SDS011;59407;42.682;23.322;2023-07-29T14:03:40;2.67;;;0.50;;
71570;SDS011;59407;42.682;23.322;2023-07-29T14:06:05;1.70;;;0.47;;
71570;SDS011;59407;42.682;23.322;2023-07-29T14:08:30;2.17;;;0.60;;
71570;SDS011;59407;42.682;23.322;2023-07-29T14:10:58;3.13;;;0.60;;
71570;SDS011;59407;42.682;23.322;2023-07-29T14:13:23;2.15;;;0.50;;
71570;SDS011;59407;42.682;23.322;2023-07-29T14:15:49;2.07;;;0.50;;
71570;SDS011;59407;42.682;23.322;2023-07-29T14:18:14;1.80;;;0.40;;
71570;SDS011;59407;42.682;23.322;2023-07-29T14:20:40;2.23;;;0.50;;
71570;SDS011;59407;42.682;23.322;2023-07-29T14:23:07;1.90;;;0.50;;
71570;SDS011;59407;42.682;23.322;2023-07-29T14:25:33;2.35;;;0.47;;
71570;SDS011;59407;42.682;23.322;2023-07-29T14:27:59;2.60;;;0.40;;
71570;SDS011;59407;42.682;23.322;2023-07-29T14:30:25;2.00;;;0.60;;
71570;SDS011;59407;42.682;23.322;2023-07-29T14:32:51;2.03;;;0.70;;
71570;SDS011;59407;42.682;23.322;2023-07-29T14:35:16;2.30;;;0.75;;
71570;SDS011;59407;42.682;23.322;2023-07-29T14:37:42;2.10;;;0.70;;
71570;SDS011;59407;42.682;23.322;2023-07-29T14:40:07;2.50;;;0.83;;
71570;SDS011;59407;42.682;23.322;2023-07-29T14:42:33;2.25;;;0.70;;
71570;SDS011;59407;42.682;23.322;2023-07-29T14:44:58;1.80;;;0.63;;
71570;SDS011;59407;42.682;23.322;2023-07-29T14:47:23;2.37;;;0.50;;
71570;SDS011;59407;42.682;23.322;2023-07-29T14:49:49;2.53;;;0.70;;
71570;SDS011;59407;42.682;23.322;2023-07-29T14:52:14;2.53;;;0.70;;
71570;SDS011;59407;42.682;23.322;2023-07-29T14:54:40;2.00;;;0.57;;
71570;SDS011;59407;42.682;23.322;2023-07-29T14:57:06;2.07;;;0.60;;